sensor_id;sensor_type;location;lat;lon;timestamp;temperature;humidity
51661;DHT22;37741;49.748;8.490;2023-05-19T00:00:01;17.00;47.70
51661;DHT22;37741;49.748;8.490;2023-05-19T00:02:27;17.00;47.80
51661;DHT22;37741;49.748;8.490;2023-05-19T00:05:00;17.00;47.80
51661;DHT22;37741;49.748;8.490;2023-05-19T00:07:30;16.90;48.00
51661;DHT22;37741;49.748;8.490;2023-05-19T00:09:56;16.90;48.20
51661;DHT22;37741;49.748;8.490;2023-05-19T00:12:22;16.80;48.30
51661;DHT22;37741;49.748;8.490;2023-05-19T00:14:48;16.80;48.30
51661;DHT22;37741;49.748;8.490;2023-05-19T00:17:14;16.80;48.50
51661;DHT22;37741;49.748;8.490;2023-05-19T00:19:41;16.70;48.60
51661;DHT22;37741;49.748;8.490;2023-05-19T00:22:09;16.70;48.60
51661;DHT22;37741;49.748;8.490;2023-05-19T00:24:35;16.70;48.70
51661;DHT22;37741;49.748;8.490;2023-05-19T00:27:00;16.60;48.80
51661;DHT22;37741;49.748;8.490;2023-05-19T00:29:27;16.50;48.80
51661;DHT22;37741;49.748;8.490;2023-05-19T00:31:52;16.50;49.00
51661;DHT22;37741;49.748;8.490;2023-05-19T00:34:18;16.50;49.10
51661;DHT22;37741;49.748;8.490;2023-05-19T00:36:43;16.40;49.10
51661;DHT22;37741;49.748;8.490;2023-05-19T00:39:09;16.40;49.30
51661;DHT22;37741;49.748;8.490;2023-05-19T00:41:35;16.40;49.20
51661;DHT22;37741;49.748;8.490;2023-05-19T00:44:01;16.30;49.30
51661;DHT22;37741;49.748;8.490;2023-05-19T00:46:26;16.30;49.50
51661;DHT22;37741;49.748;8.490;2023-05-19T00:48:52;16.30;49.60
51661;DHT22;37741;49.748;8.490;2023-05-19T00:51:18;16.20;49.70
51661;DHT22;37741;49.748;8.490;2023-05-19T00:53:45;16.10;49.80
51661;DHT22;37741;49.748;8.490;2023-05-19T00:56:13;16.10;50.10
51661;DHT22;37741;49.748;8.490;2023-05-19T00:58:40;16.00;50.00
51661;DHT22;37741;49.748;8.490;2023-05-19T01:01:06;16.00;50.10
51661;DHT22;37741;49.748;8.490;2023-05-19T01:03:33;16.00;50.20
51661;DHT22;37741;49.748;8.490;2023-05-19T01:06:00;16.00;50.30
51661;DHT22;37741;49.748;8.490;2023-05-19T01:08:33;15.90;50.30
51661;DHT22;37741;49.748;8.490;2023-05-19T01:11:00;15.90;50.30
51661;DHT22;37741;49.748;8.490;2023-05-19T01:13:26;15.90;50.60
51661;DHT22;37741;49.748;8.490;2023-05-19T01:18:56;15.80;50.50
51661;DHT22;37741;49.748;8.490;2023-05-19T01:27:59;15.70;50.70
51661;DHT22;37741;49.748;8.490;2023-05-19T01:30:16;15.70;50.70
51661;DHT22;37741;49.748;8.490;2023-05-19T01:32:48;15.60;50.80
51661;DHT22;37741;49.748;8.490;2023-05-19T01:35:17;15.60;50.90
51661;DHT22;37741;49.748;8.490;2023-05-19T01:37:43;15.60;51.00
51661;DHT22;37741;49.748;8.490;2023-05-19T01:40:10;15.50;51.00
51661;DHT22;37741;49.748;8.490;2023-05-19T01:42:37;15.50;51.00
51661;DHT22;37741;49.748;8.490;2023-05-19T01:45:05;15.50;51.20
51661;DHT22;37741;49.748;8.490;2023-05-19T01:47:37;15.50;51.10
51661;DHT22;37741;49.748;8.490;2023-05-19T01:50:04;15.40;51.30
51661;DHT22;37741;49.748;8.490;2023-05-19T01:52:30;15.40;51.20
51661;DHT22;37741;49.748;8.490;2023-05-19T01:54:56;15.40;51.30
51661;DHT22;37741;49.748;8.490;2023-05-19T01:57:36;15.40;51.50
51661;DHT22;37741;49.748;8.490;2023-05-19T02:00:12;15.30;51.50
51661;DHT22;37741;49.748;8.490;2023-05-19T02:08:42;15.20;51.80
51661;DHT22;37741;49.748;8.490;2023-05-19T02:11:18;15.10;51.80
51661;DHT22;37741;49.748;8.490;2023-05-19T02:13:49;15.10;51.90
51661;DHT22;37741;49.748;8.490;2023-05-19T02:16:15;15.00;51.90
51661;DHT22;37741;49.748;8.490;2023-05-19T02:18:44;15.00;52.00
51661;DHT22;37741;49.748;8.490;2023-05-19T02:21:11;15.00;52.20
51661;DHT22;37741;49.748;8.490;2023-05-19T02:23:39;15.00;52.20
51661;DHT22;37741;49.748;8.490;2023-05-19T02:26:05;14.90;52.30
51661;DHT22;37741;49.748;8.490;2023-05-19T02:28:33;14.90;52.30
51661;DHT22;37741;49.748;8.490;2023-05-19T02:30:59;14.80;52.40
51661;DHT22;37741;49.748;8.490;2023-05-19T02:33:25;14.80;52.50
51661;DHT22;37741;49.748;8.490;2023-05-19T02:35:51;14.80;52.50
51661;DHT22;37741;49.748;8.490;2023-05-19T02:38:17;14.80;52.70
51661;DHT22;37741;49.748;8.490;2023-05-19T02:40:43;14.70;52.70
51661;DHT22;37741;49.748;8.490;2023-05-19T02:43:08;14.70;52.70
51661;DHT22;37741;49.748;8.490;2023-05-19T02:45:34;14.60;52.80
51661;DHT22;37741;49.748;8.490;2023-05-19T02:48:00;14.60;52.90
51661;DHT22;37741;49.748;8.490;2023-05-19T02:50:26;14.50;53.00
51661;DHT22;37741;49.748;8.490;2023-05-19T02:52:51;14.50;52.90
51661;DHT22;37741;49.748;8.490;2023-05-19T02:55:18;14.50;53.10
51661;DHT22;37741;49.748;8.490;2023-05-19T02:57:43;14.50;53.30
51661;DHT22;37741;49.748;8.490;2023-05-19T03:00:09;14.40;53.40
51661;DHT22;37741;49.748;8.490;2023-05-19T03:02:35;14.30;53.40
51661;DHT22;37741;49.748;8.490;2023-05-19T03:05:01;14.30;53.40
51661;DHT22;37741;49.748;8.490;2023-05-19T03:07:28;14.30;53.80
51661;DHT22;37741;49.748;8.490;2023-05-19T03:09:54;14.20;53.70
51661;DHT22;37741;49.748;8.490;2023-05-19T03:12:19;14.20;53.70
51661;DHT22;37741;49.748;8.490;2023-05-19T03:14:46;14.20;53.90
51661;DHT22;37741;49.748;8.490;2023-05-19T03:17:11;14.10;53.90
51661;DHT22;37741;49.748;8.490;2023-05-19T03:19:37;14.10;53.90
51661;DHT22;37741;49.748;8.490;2023-05-19T03:22:03;14.10;53.90
51661;DHT22;37741;49.748;8.490;2023-05-19T03:24:29;14.10;54.10
51661;DHT22;37741;49.748;8.490;2023-05-19T03:26:55;14.00;54.00
51661;DHT22;37741;49.748;8.490;2023-05-19T03:29:20;14.00;54.10
51661;DHT22;37741;49.748;8.490;2023-05-19T03:31:46;14.00;54.30
51661;DHT22;37741;49.748;8.490;2023-05-19T03:34:11;14.00;54.50
51661;DHT22;37741;49.748;8.490;2023-05-19T03:36:37;13.90;54.50
51661;DHT22;37741;49.748;8.490;2023-05-19T03:39:07;13.90;54.50
51661;DHT22;37741;49.748;8.490;2023-05-19T03:41:33;13.90;54.60
51661;DHT22;37741;49.748;8.490;2023-05-19T03:43:59;13.80;54.70
51661;DHT22;37741;49.748;8.490;2023-05-19T03:46:24;13.80;54.80
51661;DHT22;37741;49.748;8.490;2023-05-19T03:48:50;13.80;54.90
51661;DHT22;37741;49.748;8.490;2023-05-19T03:51:16;13.70;54.90
51661;DHT22;37741;49.748;8.490;2023-05-19T03:53:41;13.70;54.90
51661;DHT22;37741;49.748;8.490;2023-05-19T03:56:08;13.70;54.90
51661;DHT22;37741;49.748;8.490;2023-05-19T03:58:35;13.70;55.10
51661;DHT22;37741;49.748;8.490;2023-05-19T04:01:05;13.60;55.10
51661;DHT22;37741;49.748;8.490;2023-05-19T04:03:30;13.60;55.10
51661;DHT22;37741;49.748;8.490;2023-05-19T04:05:56;13.60;55.10
51661;DHT22;37741;49.748;8.490;2023-05-19T04:08:21;13.60;55.30
51661;DHT22;37741;49.748;8.490;2023-05-19T04:10:47;13.50;55.30
51661;DHT22;37741;49.748;8.490;2023-05-19T04:13:12;13.50;55.40
51661;DHT22;37741;49.748;8.490;2023-05-19T04:15:47;13.50;55.40
51661;DHT22;37741;49.748;8.490;2023-05-19T04:18:13;13.50;55.50
51661;DHT22;37741;49.748;8.490;2023-05-19T04:20:39;13.50;55.40
51661;DHT22;37741;49.748;8.490;2023-05-19T04:23:04;13.50;55.50
51661;DHT22;37741;49.748;8.490;2023-05-19T04:25:30;13.50;55.60
51661;DHT22;37741;49.748;8.490;2023-05-19T04:27:56;13.40;55.60
51661;DHT22;37741;49.748;8.490;2023-05-19T04:30:23;13.40;55.70
51661;DHT22;37741;49.748;8.490;2023-05-19T04:32:48;13.40;55.70
51661;DHT22;37741;49.748;8.490;2023-05-19T04:35:15;13.30;55.80
51661;DHT22;37741;49.748;8.490;2023-05-19T04:37:42;13.30;55.70
51661;DHT22;37741;49.748;8.490;2023-05-19T04:40:11;13.30;55.90
51661;DHT22;37741;49.748;8.490;2023-05-19T04:42:36;13.30;55.90
51661;DHT22;37741;49.748;8.490;2023-05-19T04:45:06;13.30;56.00
51661;DHT22;37741;49.748;8.490;2023-05-19T04:47:33;13.20;56.00
51661;DHT22;37741;49.748;8.490;2023-05-19T04:50:01;13.20;56.10
51661;DHT22;37741;49.748;8.490;2023-05-19T04:52:27;13.20;56.10
51661;DHT22;37741;49.748;8.490;2023-05-19T04:54:53;13.20;56.40
51661;DHT22;37741;49.748;8.490;2023-05-19T04:57:18;13.20;56.40
51661;DHT22;37741;49.748;8.490;2023-05-19T04:59:44;13.10;56.40
51661;DHT22;37741;49.748;8.490;2023-05-19T05:02:10;13.10;56.50
51661;DHT22;37741;49.748;8.490;2023-05-19T05:04:36;13.10;56.60
51661;DHT22;37741;49.748;8.490;2023-05-19T05:07:04;13.10;56.50
51661;DHT22;37741;49.748;8.490;2023-05-19T05:09:30;13.10;56.70
51661;DHT22;37741;49.748;8.490;2023-05-19T05:11:56;13.00;56.70
51661;DHT22;37741;49.748;8.490;2023-05-19T05:14:22;13.00;56.80
51661;DHT22;37741;49.748;8.490;2023-05-19T05:16:48;13.00;56.80
51661;DHT22;37741;49.748;8.490;2023-05-19T05:19:14;13.00;56.90
51661;DHT22;37741;49.748;8.490;2023-05-19T05:21:40;13.00;57.00
51661;DHT22;37741;49.748;8.490;2023-05-19T05:24:07;13.00;57.00
51661;DHT22;37741;49.748;8.490;2023-05-19T05:26:34;13.00;57.00
51661;DHT22;37741;49.748;8.490;2023-05-19T05:29:00;13.00;57.00
51661;DHT22;37741;49.748;8.490;2023-05-19T05:31:26;13.00;57.10
51661;DHT22;37741;49.748;8.490;2023-05-19T05:33:51;13.00;57.10
51661;DHT22;37741;49.748;8.490;2023-05-19T05:36:17;13.00;57.00
51661;DHT22;37741;49.748;8.490;2023-05-19T05:38:42;13.00;57.10
51661;DHT22;37741;49.748;8.490;2023-05-19T05:41:08;13.00;57.20
51661;DHT22;37741;49.748;8.490;2023-05-19T05:43:34;12.90;57.20
51661;DHT22;37741;49.748;8.490;2023-05-19T05:45:59;12.90;57.20
51661;DHT22;37741;49.748;8.490;2023-05-19T05:48:25;12.90;57.50
51661;DHT22;37741;49.748;8.490;2023-05-19T05:50:51;12.90;57.30
51661;DHT22;37741;49.748;8.490;2023-05-19T05:53:21;12.90;57.30
51661;DHT22;37741;49.748;8.490;2023-05-19T05:55:49;12.90;57.30
51661;DHT22;37741;49.748;8.490;2023-05-19T05:58:15;12.90;57.40
51661;DHT22;37741;49.748;8.490;2023-05-19T06:00:41;13.00;57.50
51661;DHT22;37741;49.748;8.490;2023-05-19T06:03:08;12.90;57.60
51661;DHT22;37741;49.748;8.490;2023-05-19T06:05:35;12.90;57.60
51661;DHT22;37741;49.748;8.490;2023-05-19T06:08:01;12.90;57.60
51661;DHT22;37741;49.748;8.490;2023-05-19T06:10:27;12.90;57.70
51661;DHT22;37741;49.748;8.490;2023-05-19T06:12:53;12.90;57.80
51661;DHT22;37741;49.748;8.490;2023-05-19T06:15:20;12.90;57.90
51661;DHT22;37741;49.748;8.490;2023-05-19T06:17:49;12.90;57.90
51661;DHT22;37741;49.748;8.490;2023-05-19T06:20:16;12.90;57.80
51661;DHT22;37741;49.748;8.490;2023-05-19T06:22:42;12.90;57.90
51661;DHT22;37741;49.748;8.490;2023-05-19T06:25:08;12.90;57.90
51661;DHT22;37741;49.748;8.490;2023-05-19T06:27:34;12.90;57.90
51661;DHT22;37741;49.748;8.490;2023-05-19T06:30:00;12.90;58.00
51661;DHT22;37741;49.748;8.490;2023-05-19T06:32:25;12.90;58.00
51661;DHT22;37741;49.748;8.490;2023-05-19T06:34:51;12.90;57.90
51661;DHT22;37741;49.748;8.490;2023-05-19T06:37:22;12.90;58.00
51661;DHT22;37741;49.748;8.490;2023-05-19T06:39:52;12.90;58.00
51661;DHT22;37741;49.748;8.490;2023-05-19T06:42:18;13.00;58.00
51661;DHT22;37741;49.748;8.490;2023-05-19T06:44:49;12.90;58.00
51661;DHT22;37741;49.748;8.490;2023-05-19T06:47:15;13.00;58.00
51661;DHT22;37741;49.748;8.490;2023-05-19T06:49:41;13.00;58.10
51661;DHT22;37741;49.748;8.490;2023-05-19T06:52:07;13.00;58.10
51661;DHT22;37741;49.748;8.490;2023-05-19T06:54:32;13.00;58.20
51661;DHT22;37741;49.748;8.490;2023-05-19T06:56:58;13.00;58.30
51661;DHT22;37741;49.748;8.490;2023-05-19T06:59:23;13.00;58.30
51661;DHT22;37741;49.748;8.490;2023-05-19T07:01:49;13.00;58.40
51661;DHT22;37741;49.748;8.490;2023-05-19T07:04:15;13.00;58.50
51661;DHT22;37741;49.748;8.490;2023-05-19T07:06:40;13.10;59.10
51661;DHT22;37741;49.748;8.490;2023-05-19T07:09:06;13.10;59.50
51661;DHT22;37741;49.748;8.490;2023-05-19T07:11:31;13.10;59.80
51661;DHT22;37741;49.748;8.490;2023-05-19T07:13:57;13.20;59.80
51661;DHT22;37741;49.748;8.490;2023-05-19T07:16:22;13.20;59.50
51661;DHT22;37741;49.748;8.490;2023-05-19T07:18:48;13.30;59.40
51661;DHT22;37741;49.748;8.490;2023-05-19T07:21:14;13.30;59.40
51661;DHT22;37741;49.748;8.490;2023-05-19T07:23:39;13.30;59.20
51661;DHT22;37741;49.748;8.490;2023-05-19T07:26:05;13.40;59.20
51661;DHT22;37741;49.748;8.490;2023-05-19T07:28:31;13.50;59.00
51661;DHT22;37741;49.748;8.490;2023-05-19T07:30:56;13.50;59.50
51661;DHT22;37741;49.748;8.490;2023-05-19T07:33:22;13.50;58.80
51661;DHT22;37741;49.748;8.490;2023-05-19T07:35:47;13.60;58.90
51661;DHT22;37741;49.748;8.490;2023-05-19T07:38:13;13.60;58.80
51661;DHT22;37741;49.748;8.490;2023-05-19T07:40:39;13.60;58.70
51661;DHT22;37741;49.748;8.490;2023-05-19T07:43:04;13.60;58.60
51661;DHT22;37741;49.748;8.490;2023-05-19T07:45:30;13.60;58.60
51661;DHT22;37741;49.748;8.490;2023-05-19T07:47:55;13.70;58.50
51661;DHT22;37741;49.748;8.490;2023-05-19T07:50:21;13.70;58.60
51661;DHT22;37741;49.748;8.490;2023-05-19T07:52:47;13.70;58.50
51661;DHT22;37741;49.748;8.490;2023-05-19T07:55:12;13.70;58.40
51661;DHT22;37741;49.748;8.490;2023-05-19T07:57:39;13.70;58.40
51661;DHT22;37741;49.748;8.490;2023-05-19T08:00:05;13.70;59.00
51661;DHT22;37741;49.748;8.490;2023-05-19T08:02:32;13.70;58.40
51661;DHT22;37741;49.748;8.490;2023-05-19T08:04:58;13.70;58.30
51661;DHT22;37741;49.748;8.490;2023-05-19T08:07:23;13.70;58.40
51661;DHT22;37741;49.748;8.490;2023-05-19T08:09:49;13.70;58.40
51661;DHT22;37741;49.748;8.490;2023-05-19T08:12:15;13.70;58.40
51661;DHT22;37741;49.748;8.490;2023-05-19T08:14:40;13.70;58.40
51661;DHT22;37741;49.748;8.490;2023-05-19T08:17:06;13.70;58.40
51661;DHT22;37741;49.748;8.490;2023-05-19T08:19:32;13.70;58.40
51661;DHT22;37741;49.748;8.490;2023-05-19T08:21:57;13.70;58.40
51661;DHT22;37741;49.748;8.490;2023-05-19T08:24:26;13.70;58.40
51661;DHT22;37741;49.748;8.490;2023-05-19T08:26:53;13.70;58.40
51661;DHT22;37741;49.748;8.490;2023-05-19T08:29:19;13.70;58.30
51661;DHT22;37741;49.748;8.490;2023-05-19T08:31:45;13.70;58.30
51661;DHT22;37741;49.748;8.490;2023-05-19T08:34:11;13.80;62.30
51661;DHT22;37741;49.748;8.490;2023-05-19T08:36:36;13.80;63.60
51661;DHT22;37741;49.748;8.490;2023-05-19T08:39:03;13.90;61.30
51661;DHT22;37741;49.748;8.490;2023-05-19T08:41:28;13.90;60.00
51661;DHT22;37741;49.748;8.490;2023-05-19T08:43:54;14.00;60.20
51661;DHT22;37741;49.748;8.490;2023-05-19T08:46:21;14.00;61.30
51661;DHT22;37741;49.748;8.490;2023-05-19T08:48:53;14.10;60.30
51661;DHT22;37741;49.748;8.490;2023-05-19T08:51:38;14.20;59.80
51661;DHT22;37741;49.748;8.490;2023-05-19T08:54:15;14.20;59.30
51661;DHT22;37741;49.748;8.490;2023-05-19T08:56:43;14.30;58.90
51661;DHT22;37741;49.748;8.490;2023-05-19T08:59:13;14.30;59.10
51661;DHT22;37741;49.748;8.490;2023-05-19T09:01:44;14.30;59.30
51661;DHT22;37741;49.748;8.490;2023-05-19T09:04:11;14.40;59.50
51661;DHT22;37741;49.748;8.490;2023-05-19T09:06:37;14.50;59.60
51661;DHT22;37741;49.748;8.490;2023-05-19T09:09:05;14.50;58.90
51661;DHT22;37741;49.748;8.490;2023-05-19T09:11:34;14.50;58.60
51661;DHT22;37741;49.748;8.490;2023-05-19T09:14:02;14.60;58.20
51661;DHT22;37741;49.748;8.490;2023-05-19T09:16:28;14.60;58.00
51661;DHT22;37741;49.748;8.490;2023-05-19T09:18:55;14.60;58.00
51661;DHT22;37741;49.748;8.490;2023-05-19T09:21:29;14.60;57.60
51661;DHT22;37741;49.748;8.490;2023-05-19T09:24:05;14.70;57.00
51661;DHT22;37741;49.748;8.490;2023-05-19T09:26:41;14.70;57.20
51661;DHT22;37741;49.748;8.490;2023-05-19T09:29:16;14.70;57.60
51661;DHT22;37741;49.748;8.490;2023-05-19T09:31:48;14.80;57.50
51661;DHT22;37741;49.748;8.490;2023-05-19T09:34:17;14.90;57.30
51661;DHT22;37741;49.748;8.490;2023-05-19T09:36:42;14.90;56.60
51661;DHT22;37741;49.748;8.490;2023-05-19T09:39:14;15.00;56.80
51661;DHT22;37741;49.748;8.490;2023-05-19T09:41:41;15.00;55.70
51661;DHT22;37741;49.748;8.490;2023-05-19T09:44:07;15.00;55.40
51661;DHT22;37741;49.748;8.490;2023-05-19T09:46:37;15.10;55.60
51661;DHT22;37741;49.748;8.490;2023-05-19T09:49:11;15.10;55.30
51661;DHT22;37741;49.748;8.490;2023-05-19T09:51:40;15.10;55.30
51661;DHT22;37741;49.748;8.490;2023-05-19T09:54:06;15.10;55.50
51661;DHT22;37741;49.748;8.490;2023-05-19T09:56:34;15.10;55.60
51661;DHT22;37741;49.748;8.490;2023-05-19T09:59:02;15.20;56.20
51661;DHT22;37741;49.748;8.490;2023-05-19T10:01:29;15.20;56.50
51661;DHT22;37741;49.748;8.490;2023-05-19T10:03:56;15.20;56.80
51661;DHT22;37741;49.748;8.490;2023-05-19T10:06:22;15.30;56.90
51661;DHT22;37741;49.748;8.490;2023-05-19T10:08:49;15.30;56.70
51661;DHT22;37741;49.748;8.490;2023-05-19T10:11:16;15.40;57.00
51661;DHT22;37741;49.748;8.490;2023-05-19T10:13:44;15.40;56.70
51661;DHT22;37741;49.748;8.490;2023-05-19T10:16:10;15.40;56.30
51661;DHT22;37741;49.748;8.490;2023-05-19T10:18:36;15.30;55.80
51661;DHT22;37741;49.748;8.490;2023-05-19T10:21:02;15.30;55.70
51661;DHT22;37741;49.748;8.490;2023-05-19T10:23:28;15.30;55.70
51661;DHT22;37741;49.748;8.490;2023-05-19T10:25:56;15.20;55.70
51661;DHT22;37741;49.748;8.490;2023-05-19T10:28:24;15.20;55.80
51661;DHT22;37741;49.748;8.490;2023-05-19T10:30:55;15.20;55.90
51661;DHT22;37741;49.748;8.490;2023-05-19T10:33:31;15.20;55.80
51661;DHT22;37741;49.748;8.490;2023-05-19T10:36:24;15.20;55.80
51661;DHT22;37741;49.748;8.490;2023-05-19T10:38:59;15.20;56.40
51661;DHT22;37741;49.748;8.490;2023-05-19T10:44:22;15.20;55.90
51661;DHT22;37741;49.748;8.490;2023-05-19T10:46:47;15.30;55.80
51661;DHT22;37741;49.748;8.490;2023-05-19T10:49:20;15.30;55.80
51661;DHT22;37741;49.748;8.490;2023-05-19T10:51:47;15.30;55.90
51661;DHT22;37741;49.748;8.490;2023-05-19T10:54:12;15.30;55.90
51661;DHT22;37741;49.748;8.490;2023-05-19T10:56:42;15.30;55.80
51661;DHT22;37741;49.748;8.490;2023-05-19T10:59:29;15.40;55.90
51661;DHT22;37741;49.748;8.490;2023-05-19T11:01:56;15.40;55.70
51661;DHT22;37741;49.748;8.490;2023-05-19T11:04:47;15.40;55.60
51661;DHT22;37741;49.748;8.490;2023-05-19T11:07:19;15.50;55.60
51661;DHT22;37741;49.748;8.490;2023-05-19T11:09:52;15.50;55.40
51661;DHT22;37741;49.748;8.490;2023-05-19T11:12:22;15.50;55.40
51661;DHT22;37741;49.748;8.490;2023-05-19T11:14:52;15.60;55.10
51661;DHT22;37741;49.748;8.490;2023-05-19T11:17:18;15.60;55.00
51661;DHT22;37741;49.748;8.490;2023-05-19T11:19:54;15.60;55.20
51661;DHT22;37741;49.748;8.490;2023-05-19T11:22:27;15.70;55.20
51661;DHT22;37741;49.748;8.490;2023-05-19T11:24:56;15.70;54.90
51661;DHT22;37741;49.748;8.490;2023-05-19T11:27:29;15.70;54.90
51661;DHT22;37741;49.748;8.490;2023-05-19T11:30:16;15.80;55.20
51661;DHT22;37741;49.748;8.490;2023-05-19T11:32:46;15.80;55.50
51661;DHT22;37741;49.748;8.490;2023-05-19T11:35:12;15.80;54.80
51661;DHT22;37741;49.748;8.490;2023-05-19T11:37:39;15.90;55.20
51661;DHT22;37741;49.748;8.490;2023-05-19T11:40:06;15.90;54.80
51661;DHT22;37741;49.748;8.490;2023-05-19T11:42:32;16.00;54.80
51661;DHT22;37741;49.748;8.490;2023-05-19T11:45:02;16.00;54.70
51661;DHT22;37741;49.748;8.490;2023-05-19T11:47:30;16.10;55.30
51661;DHT22;37741;49.748;8.490;2023-05-19T11:49:57;16.10;54.50
51661;DHT22;37741;49.748;8.490;2023-05-19T11:52:24;16.20;54.50
51661;DHT22;37741;49.748;8.490;2023-05-19T11:54:51;16.20;54.40
51661;DHT22;37741;49.748;8.490;2023-05-19T11:57:18;16.30;54.70
51661;DHT22;37741;49.748;8.490;2023-05-19T11:59:44;16.30;54.40
51661;DHT22;37741;49.748;8.490;2023-05-19T12:04:40;16.40;54.30
51661;DHT22;37741;49.748;8.490;2023-05-19T12:07:06;16.50;54.20
51661;DHT22;37741;49.748;8.490;2023-05-19T12:09:32;16.50;54.10
51661;DHT22;37741;49.748;8.490;2023-05-19T12:11:58;16.60;54.00
51661;DHT22;37741;49.748;8.490;2023-05-19T12:14:25;16.60;53.80
51661;DHT22;37741;49.748;8.490;2023-05-19T12:16:51;16.70;53.70
51661;DHT22;37741;49.748;8.490;2023-05-19T12:19:17;16.80;53.70
51661;DHT22;37741;49.748;8.490;2023-05-19T12:21:43;16.80;53.60
51661;DHT22;37741;49.748;8.490;2023-05-19T12:24:09;16.90;53.60
51661;DHT22;37741;49.748;8.490;2023-05-19T12:26:35;16.90;53.40
51661;DHT22;37741;49.748;8.490;2023-05-19T12:29:04;17.00;53.30
51661;DHT22;37741;49.748;8.490;2023-05-19T12:31:32;17.00;53.60
51661;DHT22;37741;49.748;8.490;2023-05-19T12:33:58;17.10;53.10
51661;DHT22;37741;49.748;8.490;2023-05-19T12:36:24;17.20;53.70
51661;DHT22;37741;49.748;8.490;2023-05-19T12:38:53;17.20;52.80
51661;DHT22;37741;49.748;8.490;2023-05-19T12:41:19;17.30;52.80
51661;DHT22;37741;49.748;8.490;2023-05-19T12:43:45;17.40;52.70
51661;DHT22;37741;49.748;8.490;2023-05-19T12:46:11;17.40;52.60
51661;DHT22;37741;49.748;8.490;2023-05-19T12:48:43;17.50;52.50
51661;DHT22;37741;49.748;8.490;2023-05-19T12:51:10;17.50;52.50
51661;DHT22;37741;49.748;8.490;2023-05-19T12:53:38;17.60;52.50
51661;DHT22;37741;49.748;8.490;2023-05-19T12:56:14;17.60;52.30
51661;DHT22;37741;49.748;8.490;2023-05-19T12:58:41;17.70;52.50
51661;DHT22;37741;49.748;8.490;2023-05-19T13:01:11;17.80;52.50
51661;DHT22;37741;49.748;8.490;2023-05-19T13:03:39;17.90;52.20
51661;DHT22;37741;49.748;8.490;2023-05-19T13:06:08;18.00;51.90
51661;DHT22;37741;49.748;8.490;2023-05-19T13:08:36;18.00;51.90
51661;DHT22;37741;49.748;8.490;2023-05-19T13:11:01;18.10;52.20
51661;DHT22;37741;49.748;8.490;2023-05-19T13:13:27;18.20;51.60
51661;DHT22;37741;49.748;8.490;2023-05-19T13:15:53;18.30;51.30
51661;DHT22;37741;49.748;8.490;2023-05-19T13:18:18;18.30;51.30
51661;DHT22;37741;49.748;8.490;2023-05-19T13:20:45;18.40;51.40
51661;DHT22;37741;49.748;8.490;2023-05-19T13:23:12;18.50;51.60
51661;DHT22;37741;49.748;8.490;2023-05-19T13:25:38;18.60;51.50
51661;DHT22;37741;49.748;8.490;2023-05-19T13:28:04;18.60;51.50
51661;DHT22;37741;49.748;8.490;2023-05-19T13:30:31;18.70;50.90
51661;DHT22;37741;49.748;8.490;2023-05-19T13:32:56;18.80;50.90
51661;DHT22;37741;49.748;8.490;2023-05-19T13:35:22;18.90;51.10
51661;DHT22;37741;49.748;8.490;2023-05-19T13:37:48;19.00;51.50
51661;DHT22;37741;49.748;8.490;2023-05-19T13:40:14;19.00;51.10
51661;DHT22;37741;49.748;8.490;2023-05-19T13:42:40;19.10;50.60
51661;DHT22;37741;49.748;8.490;2023-05-19T13:45:06;19.20;50.70
51661;DHT22;37741;49.748;8.490;2023-05-19T13:47:32;19.20;50.50
51661;DHT22;37741;49.748;8.490;2023-05-19T13:49:57;19.30;50.20
51661;DHT22;37741;49.748;8.490;2023-05-19T13:52:23;19.30;50.60
51661;DHT22;37741;49.748;8.490;2023-05-19T13:54:49;19.40;50.90
51661;DHT22;37741;49.748;8.490;2023-05-19T13:57:15;19.50;50.40
51661;DHT22;37741;49.748;8.490;2023-05-19T13:59:41;19.60;50.50
51661;DHT22;37741;49.748;8.490;2023-05-19T14:02:09;19.70;50.60
51661;DHT22;37741;49.748;8.490;2023-05-19T14:04:38;19.80;50.20
51661;DHT22;37741;49.748;8.490;2023-05-19T14:07:05;19.80;49.90
51661;DHT22;37741;49.748;8.490;2023-05-19T14:09:30;19.90;49.30
51661;DHT22;37741;49.748;8.490;2023-05-19T14:11:56;19.90;49.30
51661;DHT22;37741;49.748;8.490;2023-05-19T14:14:22;20.00;48.90
51661;DHT22;37741;49.748;8.490;2023-05-19T14:16:47;20.10;49.10
51661;DHT22;37741;49.748;8.490;2023-05-19T14:19:13;20.10;49.00
51661;DHT22;37741;49.748;8.490;2023-05-19T14:21:39;20.20;49.10
51661;DHT22;37741;49.748;8.490;2023-05-19T14:24:05;20.20;48.90
51661;DHT22;37741;49.748;8.490;2023-05-19T14:26:31;20.30;48.70
51661;DHT22;37741;49.748;8.490;2023-05-19T14:28:56;20.30;49.00
51661;DHT22;37741;49.748;8.490;2023-05-19T14:31:22;20.30;48.60
51661;DHT22;37741;49.748;8.490;2023-05-19T14:33:47;20.40;48.90
51661;DHT22;37741;49.748;8.490;2023-05-19T14:36:13;20.40;49.20
51661;DHT22;37741;49.748;8.490;2023-05-19T14:38:39;20.40;48.50
51661;DHT22;37741;49.748;8.490;2023-05-19T14:41:05;20.50;48.90
51661;DHT22;37741;49.748;8.490;2023-05-19T14:43:31;20.50;48.70
51661;DHT22;37741;49.748;8.490;2023-05-19T14:45:57;20.50;49.30
51661;DHT22;37741;49.748;8.490;2023-05-19T14:48:23;20.60;49.10
51661;DHT22;37741;49.748;8.490;2023-05-19T14:50:49;20.70;48.60
51661;DHT22;37741;49.748;8.490;2023-05-19T14:53:15;20.80;48.60
51661;DHT22;37741;49.748;8.490;2023-05-19T14:55:41;20.80;48.60
51661;DHT22;37741;49.748;8.490;2023-05-19T14:58:06;20.90;48.70
51661;DHT22;37741;49.748;8.490;2023-05-19T15:00:32;20.90;48.20
51661;DHT22;37741;49.748;8.490;2023-05-19T15:03:01;20.90;48.30
51661;DHT22;37741;49.748;8.490;2023-05-19T15:05:26;21.00;48.50
51661;DHT22;37741;49.748;8.490;2023-05-19T15:07:52;21.00;48.30
51661;DHT22;37741;49.748;8.490;2023-05-19T15:10:18;21.00;48.20
51661;DHT22;37741;49.748;8.490;2023-05-19T15:12:47;21.00;48.10
51661;DHT22;37741;49.748;8.490;2023-05-19T15:15:13;21.00;47.90
51661;DHT22;37741;49.748;8.490;2023-05-19T15:17:40;21.10;48.70
51661;DHT22;37741;49.748;8.490;2023-05-19T15:20:06;21.10;48.30
51661;DHT22;37741;49.748;8.490;2023-05-19T15:22:32;21.10;48.10
51661;DHT22;37741;49.748;8.490;2023-05-19T15:25:01;21.10;48.00
51661;DHT22;37741;49.748;8.490;2023-05-19T15:27:27;21.10;48.30
51661;DHT22;37741;49.748;8.490;2023-05-19T15:29:53;21.10;48.60
51661;DHT22;37741;49.748;8.490;2023-05-19T15:32:18;21.20;48.20
51661;DHT22;37741;49.748;8.490;2023-05-19T15:34:44;21.20;48.00
51661;DHT22;37741;49.748;8.490;2023-05-19T15:37:10;21.20;47.80
51661;DHT22;37741;49.748;8.490;2023-05-19T15:39:35;21.20;47.90
51661;DHT22;37741;49.748;8.490;2023-05-19T15:42:01;21.10;48.20
51661;DHT22;37741;49.748;8.490;2023-05-19T15:44:27;21.20;48.20
51661;DHT22;37741;49.748;8.490;2023-05-19T15:46:52;21.20;48.10
51661;DHT22;37741;49.748;8.490;2023-05-19T15:49:18;21.20;48.00